ImprimablePdf
Running Tour > 2011 - Antwerpen, 17/04/2011, BEL - DVV Antwerp 10 Miles
Liste des rapports > DVV Antwerp 10 Miles - Classement + Video
Recherche: Page: 1 2 3 4 5 6 7 8 9 10 11 12 13 14 15 16 17 18 19 20 21 22 23 24 25 26 27 28 29 30 31 32 33 34 35 36 37 38 39 40 41 42 43 44 45 46 47 48 49 50 51 52 53 54 55 56 57 58 59 60 61 62 63 [64] 65 66 67 68 69 70 71 72 73
14547 Entrées
 
Les réclamations ne sont plus acceptées, les résultats sont considérés comme définitifs.
Catégorie
PosNrNomIOCEquipeTempsTkmMoy.RangNomLocalité
12601.2904HENDRICKX MarcBEL1:48:556:46 8.87769M50ZOERSEL
12602.9115DESMET PatrickBEL1:48:556:47 8.871109M45DEURNE (ANTWERP
12603.7300FVAN DER LINDEN KirstenBEL1:48:566:47 8.871249SEFHOBOKEN (ANTWER
12604.7340FADRIAENSSENS MarieBEL1:48:566:47 8.871250SEFBORSBEEK
12605.12999PELLENS ChristiaanBEL1:48:566:47 8.871110M45STEENDORP
12606.6845FFOCKAERT JokeBELTALENT IT1:48:566:47 8.871251SEFWORTEL
12607.14704MOENS AlainBEL1:48:566:47 8.874047SEH
12608.2357FSEGERS AnnemieBEL1:48:576:47 8.86469F35SCHILDE
12609.1565FVAN DE VEIRE HildeBEL1:48:576:47 8.86362F45HALLE-ZOERSEL
12610.4246DE VOLDER JensBEL1:48:576:47 8.864048SEHGEEL
12611.14907VAN STAPPEN Chris1:48:576:47 8.861111M45
12612.2126FDE CLERCK IneBEL1:48:576:47 8.861252SEFSINT-LENAERTS
12613.2137FSABBE ElienBEL1:48:576:47 8.861253SEFBERLAAR
12614.9983NR 9983 XXX1:48:576:47 8.86-
12615.2975SELS SethBEL1:48:576:47 8.861182M35ZEMST
12616.1543BOVYN TomBEL1:48:576:47 8.861183M35BOOISCHOT
12617.11752FCOCKX DinaBEL1:48:576:47 8.86420F40ANTWERPEN 3
12618.4862FBRACKE AnnickBEL1:49:006:47 8.861254SEFANTWERPEN
12619.5305VAN DESSEL SilvainBEL1:49:006:47 8.861112M45FRASNES LES BUI
12620.18381FVANDEN BUSSCHE IngeBEL1:49:006:47 8.86470F35
12621.12440ZWAENEPOEL JanBELDREDGING INTERN1:49:006:47 8.861184M35ANTWERPEN 5
12622.12189CLAES FrederikBELROYAL ESSO CLUB1:49:016:47 8.864049SEHLIEDEKERKE
12623.18794FVAN DUYSE WendyNLD1:49:026:47 8.86471F35
12624.7822FCATTOIR JulieBEL1:49:026:47 8.86472F35OOSTAKKER
12625.4609FTHEYS StephanieBEL1:49:026:47 8.861255SEFSINT-AGATHA-ROD
12626.5288LEYSEN PatrickBEL1:49:026:47 8.861113M45TURNHOUT
12627.4992FVANHEUSDEN StephanieBELFEBELCO1:49:026:47 8.861256SEFITEGEM
12628.11182FPEETERS WendyBEL1:49:036:47 8.86421F40KAPELLEN (ANTW.
12629.6082VAN KAMPEN LeoNLD1:49:036:47 8.861114M45DEN HAAG
12630.7550FVANREUSEL JilBEL1:49:036:47 8.861257SEFHOVE
12631.18793FVAN ROSSEM TaniaBEL1:49:036:47 8.861258SEF
12632.16485FSMITS Marijke1:49:036:47 8.861259SEF
12633.7917BLOMME JurgenBELHP1:49:036:47 8.861242M40SINT-NIKLAAS
12634.1513FVANDEWALLE LeenBEL1:49:036:47 8.861260SEFHOVE
12635.11020DE SMET IvoBEL1:49:046:47 8.86425M55ANTWERPEN 1
12636.7779FBASTIAENSSENS MartineBEL1:49:056:47 8.85363F45KAPELLEN (ANTW.
12637.12968FHOUBEN GerdBEL1:49:056:47 8.85212F50NIEL
12638.8537FPUT LynneBEL1:49:056:47 8.851261SEFHULDENBERG
12639.14600FBARRERA SANCHEZ Bernadette1:49:056:47 8.85422F40
12640.2916PRIELS JohanBEL1:49:066:47 8.85426M55KAMPENHOUT
12641.18795WEEMAES BartBEL1:49:076:47 8.851115M45
12642.18914BELIS ChrisBEL1:49:076:47 8.851243M40
12643.1731VAN LAERE DirkBEL1:49:076:47 8.851116M45ANTWERPEN 5
12644.7515FGARCIA JennyBELDP WORLD BELGIU1:49:076:47 8.851262SEFMORTSEL
12645.12481FMALCORPS HildeBEL1:49:076:47 8.85213F50BOECHOUT
12646.4394RAES MichaelBEL1:49:086:47 8.854050SEHANTWERPEN
12647.8423GOOSSENS JozefBEL1:49:106:47 8.8556M65EKEREN (ANTWERP
12648.3209SWIJSEN MathiasBEL1:49:106:47 8.854051SEHEKEREN
12649.11497ALLAERTS MichielBELDELOITTE1:49:116:47 8.854052SEHMERKSPLAS
12650.16623HOOYBERGHS Hans1:49:116:47 8.854053SEH
12651.15371CLAESSENS Thomas1:49:116:47 8.854054SEH
12652.11327VAN DEN HEUVEL BramBELNEW HOLLAND AGR1:49:116:48 8.854055SEHTURNHOUT
12653.18360MARTENS ChrisBEL1:49:126:48 8.841117M45
12654.9732RODRIGUES DirkBEL1:49:126:48 8.84-LOONBEEK
12655.7111VEROUGSTRAETE PatrickBELSONEPAR BELGIUM1:49:126:48 8.841118M45MOESKROEN
12656.3012FENNEKENS JulieBEL1:49:126:48 8.841263SEFBROECHEM
12657.3274FANNYS HildeBEL1:49:126:48 8.84364F45BROECHEM
12658.12942FDE COCK IngaBEL1:49:126:48 8.8475F55NIEL
12659.16861FIVENS Cathy1:49:126:48 8.84423F40
12660.12981LENIE SammyBEL1:49:126:48 8.841185M35NIEL
12661.13733FSALEMBIER HeidiBELTOTAL1:49:136:48 8.84424F40
12662.18359MARTENS IanBEL1:49:136:48 8.844056SEH
12663.8406FVAN STEEN KellyBELARGENTA1:49:136:48 8.841264SEFNIEL
12664.15368FDE RYCK Julie1:49:146:48 8.841265SEF
12665.15321BILLIAU Geert1:49:146:48 8.841119M45
12666.15369FDE BACKER Iske1:49:146:48 8.841266SEF
12667.19052CONVENS AlexBELBOKS ZVW1:49:156:48 8.841244M40
12668.15498ADAMI Olav1:49:156:48 8.844057SEH
12669.19192FMINNE HelenBEL1:49:166:48 8.84473F35
12670.15392BOESMANS Bart1:49:166:48 8.841120M45
12671.2526FJACOB VickyBEL1:49:166:48 8.841267SEFBERCHEM
12672.19193FDE VROEY IsabelleBEL1:49:166:48 8.84474F35
12673.13530FVAN LANGEN JohannaBEL1:49:166:48 8.841268SEF
12674.15364GORIS Wouter1:49:166:48 8.844058SEH
12675.13294FDEWIT CressyBEL1:49:176:48 8.841269SEFMEERHOUT
12676.6003WIJNEN BenBELORDINA BELGIUM 1:49:176:48 8.844059SEHLANAKEN
12677.12804FJEGERS AnnBELVAN IN1:49:186:48 8.84425F40LIER
12678.12819VAN NIMMEN AndyBELVAN IN1:49:196:48 8.841186M35EKEREN (ANTWERP
12679.1681FPERSYN KarolienBEL1:49:196:48 8.841270SEFWILRIJK
12680.1671FDE MOOR TinekeBEL1:49:196:48 8.841271SEFWILRIJK
12681.2757VANGIBERGEN Carlos1:49:196:48 8.834060SEH
12682.8728FBOSMANS AnBEL1:49:206:48 8.83475F35MOL
12683.7233FSMET NeleBEL1:49:206:48 8.83476F35MOL
12684.11808VAN DEN BROECKE LucBELNATEUS1:49:206:48 8.83165M60BRUXELLES 17
12685.8904DAEMS KenBEL1:49:206:48 8.834061SEHAARTSELAAR
12686.2608FD'HULST IsabelleBEL1:49:216:48 8.831272SEFANTWERPEN
12687.8150FVANHAUTE HeleenBEL1:49:216:48 8.831273SEFMORTSEL
12688.11872FDE LAET JulieBEL1:49:226:48 8.831274SEFANTWERPEN
12689.10576DEFOOR DannyBEL1:49:226:48 8.831121M45BRASSCHAAT
12690.3562FBELLINCK BethsabeeBEL1:49:226:48 8.831275SEFBIERBEEK
12691.11194FDE CLERCK ReinildeBEL1:49:226:48 8.83426F40KAPELLEN (ANTW.
12692.13305COOLS KurtBEL1:49:236:48 8.834062SEHOLEN
12693.5150FSCHRIJVERS ElsBEL1:49:236:48 8.83477F35OOSTMALLE
12694.14817BRENTJENS Erwin1:49:236:48 8.83427M55
12695.11004FVAN CAMPFORT AnnBEL1:49:246:48 8.83427F40DESSEL
12696.8129FVANAELST IngeBEL1:49:246:48 8.83478F35SCHILDE
12697.10991FSTRYBOL VeerleBEL1:49:246:48 8.83365F45MOL
12698.6958CLAESSENS BartBELBASF1:49:246:48 8.834063SEHPUTTE
12699.6678GENBRUGGE CedricBEL1:49:256:48 8.834064SEHEDEGEM
12700.12175VAN THILLO MarcBELROYAL ESSO CLUB1:49:256:48 8.83770M50DUFFEL
12701.6167GLAUDE ChristopheBEL1:49:256:48 8.834065SEHWALHAIN
12702.1589FDOMEN LiesbethBEL1:49:266:48 8.831276SEFBRECHT
12703.2465FKREB AnneBEL1:49:266:48 8.831277SEFGENT
12704.3847PEETERS SebastiaanBEL1:49:266:48 8.824066SEHAARTSELAAR
12705.14242FCLAUS LindsayBEL1:49:266:48 8.821278SEF
12706.9642MUGEMANGANGO GerardBELPVDA-PTB1:49:276:48 8.82-BRUSSEL 3
12707.8895FEYSELBERGS MachteldBEL1:49:276:48 8.82214F50MORTSEL
12708.10828FKERCKHOFS IneBEL1:49:276:48 8.821279SEFEDEGEM
12709.8045VERVOORT PeterBEL1:49:276:48 8.821122M45STABROEK
12710.13509SLUIJS MaartenBEL1:49:286:49 8.824067SEH
12711.7999VAN GIJSEGHEM VictorBEL1:49:286:49 8.824068SEHANTWERPEN
12712.18462FVAN HEESTER IlseBEL1:49:286:49 8.82215F50
12713.2419DE SMET StevenBEL1:49:296:49 8.821245M40OOSTMALLE
12714.8017FVAN LIERDE CharlotteBEL1:49:296:49 8.821280SEFANTWERPEN
12715.13673HAECK BertBELTOTAL1:49:296:49 8.821246M40
12716.18463TAEYMANS JerkeBEL1:49:296:49 8.824069SEH
12717.14531COUWELS LucBEL1:49:296:49 8.82428M55HOBOKEN
12718.4628FVAN DER EIJK CleodyNLD1:49:306:49 8.821281SEFWARMOND
12719.4630FVAN MALDEREN LindseyBEL1:49:306:49 8.821282SEFZELE
12720.19440FVAN WESENBEECK KayBEL1:49:306:49 8.821283SEF
12721.14504DE BACKER Nicolas1:49:316:49 8.824070SEH
12722.7623FRAES Marie-JosepheBELVINCOTTE1:49:316:49 8.82366F45SINT-DENIJS-WES
12723.7595DEN AANTREKKER MarcBEL1:49:326:49 8.82771M50DEURNE (ANTWERP
12724.9577BOGAERTS FredericBELERNST & YOUNG1:49:326:49 8.82-BORGERHOUT (ANT
12725.3692DELRUE StefaanBELTELENET1:49:336:49 8.821247M40BORGERHOUT (ANT
12726.2320TUYMANS StevenBEL1:49:336:49 8.824071SEHLIER
12727.2895COOLS MarcBEL1:49:346:49 8.82772M50ESSEN
12728.3571GORDYN WillyBEL1:49:346:49 8.81773M50ANTWERPEN
12729.14771CLAESSENS Bart1:49:346:49 8.814072SEH
12730.2738SILES Jose-MariaBEL1:49:346:49 8.81166M60BRUXELLES
12731.4219DIERCKXSENS DominiqueBELBATENBORCH INTE1:49:346:49 8.81-EDEGEM
12732.2321DRIESEN RikBEL1:49:346:49 8.81774M50HEIST OP DEN BE
12733.14214VAN HUFFEL JukkaBEL1:49:356:49 8.814073SEH
12734.11688VERBIEST RogerBEL1:49:356:49 8.81429M55WESTERLO
12735.11158FGEUDENS SofieBEL1:49:356:49 8.811284SEFTURNHOUT
12736.9919MALOUS ElieBEL1:49:366:49 8.811248M40ANTWERP
12737.4214BOLCKMANS ChrisBEL1:49:366:49 8.811249M40SCHOTEN
12738.11764FHENDRICKX VanessaBELNATEUS1:49:366:49 8.811285SEFBEERSE
12739.2503FVAN ROOSBROEK EviBEL1:49:366:49 8.811286SEFLAARNE
12740.14230GREGOIR BertBEL1:49:366:49 8.814074SEH
12741.6891VAN DORSSELAER BertBEL1:49:376:49 8.81775M50DE KLINGE
12742.14303FCLINKE LeenBEL1:49:376:49 8.81-
12743.7626FDE LANGHE MaaikeBELVINCOTTE1:49:376:49 8.811287SEFRUISELEDE
12744.2687SERESIA GuidoBEL1:49:376:49 8.81167M60BRASSCHAAT
12745.10091LENAERTS JorgBELMOORE STEPHENS 1:49:386:49 8.811250M40ANTWERPEN 1
12746.3434SWARTEBROECKX SvenBEL1:49:386:49 8.814075SEHGROBBENDONK
12747.3573STULENS GeertBEL1:49:386:49 8.811251M40BLANDEN
12748.11936VAN DENHAUTE SandraBEL1:49:396:49 8.811252M40KAPELLEN
12749.8121FVAN GESTEL ChrisBEL1:49:396:49 8.81-HOOGSTRATEN
12750.11861FROEYKENS KatrineBEL1:49:396:49 8.81479F35KAPELLEN
12751.5841VAN LOOVEREN AdriaanBEL1:49:396:49 8.8113M70RIJKEVORSEL
12752.19136FILEGEMS MyriamBEL1:49:396:49 8.81367F45
12753.19463STEVENS JanBEL1:49:396:49 8.811253M40
12754.18791RAEYMAEKERS GuntherBEL1:49:396:49 8.814076SEH
12755.15356LEENAERTS Walter1:49:396:49 8.811123M45
12756.6517FMEEUSEN KristneBELGZA1:49:406:49 8.81216F50OELEGEM
12757.4168VAN AELST BastienBELMICHAEL PAGE1:49:406:49 8.814077SEHSCHAERBEEK
12758.11783DELWAIDE DimitriBELNATEUS1:49:406:49 8.811254M40LANAKEN
12759.14701GIJS Kristof1:49:416:49 8.811187M35
12760.8244FVAN RAEMDONCK AnBEL1:49:416:49 8.81480F35EKEREN
12761.8243VAN LOOY ErikBEL1:49:416:49 8.801188M35EKEREN (ANTWERP
12762.8305LENAERTS PeterBELAVERY DENNISON1:49:426:49 8.80776M50VOSSELAAR
12763.18700RAES GilbertBEL1:49:426:49 8.80168M60
12764.3555FVAN DEN HEUVEL EveBEL1:49:436:49 8.801288SEFVORSELAAR
12765.10141RUTTEN KristofBELLESSIUS1:49:436:50 8.804078SEHANTWERPEN 1
12766.6586DEMOL Jean-MarieBELING1:49:446:50 8.80777M50HALLE
12767.16037SCHOONVLIET Samuel1:49:446:50 8.80-
12768.2579PECNIK IvanBEL1:49:446:50 8.801124M45ANTWERPEN
12769.16794HESHOF Stijn1:49:446:50 8.804079SEH
12770.8381VERBERCK WimBELARGENTA1:49:446:50 8.80-AARTSELAAR
12771.11813FGEYSEN IsabelleBELNATEUS1:49:456:50 8.80-WILRIJK (ANTWER
12772.12769FVERCAMMEN GiselaBELINTERSOC1:49:456:50 8.80368F45BREENDONK
12773.2903FVANDERPERREN FlorienBEL1:49:466:50 8.801289SEFWEZEMBEEK-OPPEM
12774.7348VAN RAEVELS WimBEL1:49:476:50 8.804080SEHHOBOKEN (ANTWER
12775.7050VAN DEN ACKER TimBELBASF1:49:486:50 8.804081SEHSTABROEK
12776.3524FPOORT AnnemieBEL1:49:496:50 8.8076F55ZELE
12777.1961VAN MEEUWEN NielBEL1:49:496:50 8.794082SEHKESSEL-LO
12778.18856VAN THIENEN FransBEL1:49:496:50 8.79169M60
12779.8333GUEVORKIAN GevorkBELARGENTA1:49:506:50 8.794083SEHSCHOTEN
12780.19461FHEYRMAN LeenBEL1:49:516:50 8.791290SEF
12781.10535FVAN THILLO ElkeBEL1:49:516:50 8.79481F35SINT-NIKLAAS
12782.12110MOORTGAT MatthiasBEL1:49:516:50 8.794084SEHHOFSTADE
12783.10074TER MOLEN Jan WillemNLDSHIRE-MOVETIS1:49:516:50 8.794085SEHSCHIEDAM
12784.4759VOLCKAERTS StevenBEL1:49:516:50 8.791255M40BAAL
12785.1860FBELMANS SaraBEL1:49:516:50 8.791291SEFLIER
12786.11535BEECKMANS PaulBEL1:49:526:50 8.79430M55DEURNE
12786.1861FVERHEYE LienBEL1:49:526:50 8.791292SEFGENT
12788.1446FBROES KatrinBEL1:49:526:50 8.791293SEFWOMMELGEM
12789.13725FPLOMPEN EviBELTOTAL1:49:526:50 8.79482F35
12790.13173FMEES LucieBEL1:49:536:50 8.791294SEFBORGERHOUT (ANT
12791.3952HERMANS KoenBEL1:49:536:50 8.791189M35PUTTE(PEULIS)
12792.19261FVAN DEN BOSCH AstridBEL1:49:536:50 8.79369F45
12793.13392FVAN TONGERLOO LoreBEL1:49:536:50 8.791295SEF
12794.6924FDE WINTER KristineBELFABORY1:49:536:50 8.79370F45BEVEREN-WAAS
12795.11536FBERVOETS HildeBEL1:49:556:50 8.79371F45DEURNE
12796.3775FVAN VLERKEN EvyBEL1:49:556:50 8.791296SEFARENDONK
12797.4066FSMETS KarineBEL1:49:556:50 8.79483F35ARENDONK
12798.7052VAN DEN BRANDE PieterBELBASF1:49:556:50 8.79778M50KAPELLEN
12799.18538FKERREMANS IngeBEL1:49:556:50 8.79484F35
12800.13643FDE MAEYER SimBELTOTAL1:49:556:50 8.79217F50
DNF: abandon; DSQ: disqualifié; Vitesse en km/h
ChronoRace - Electronic Timing - www.chronorace.be